createdAt,value
2019-01-21T00:02:16.395Z,-1.50
2019-01-21T00:04:45.730Z,-1.60
2019-01-21T00:07:15.454Z,-1.50
2019-01-21T00:09:44.894Z,-1.50
2019-01-21T00:12:14.449Z,-1.40
2019-01-21T00:14:44.111Z,-1.40
2019-01-21T00:17:13.441Z,-1.40
2019-01-21T00:19:43.249Z,-1.30
2019-01-21T00:22:12.591Z,-1.40
2019-01-21T00:24:42.342Z,-1.50
2019-01-21T00:27:11.726Z,-1.60
2019-01-21T00:29:41.700Z,-1.60
2019-01-21T00:32:11.078Z,-1.70
2019-01-21T00:34:40.439Z,-1.70
2019-01-21T00:37:09.959Z,-1.70
2019-01-21T00:39:39.741Z,-1.80
2019-01-21T00:42:09.146Z,-1.60
2019-01-21T00:44:38.574Z,-1.60
2019-01-21T00:47:08.089Z,-1.60
2019-01-21T00:49:37.686Z,-1.70
2019-01-21T00:52:07.167Z,-1.70
2019-01-21T00:54:36.808Z,-1.70
2019-01-21T00:57:06.162Z,-1.60
2019-01-21T00:59:35.747Z,-1.50
2019-01-21T01:02:05.391Z,-1.60
2019-01-21T01:04:34.909Z,-1.50
2019-01-21T01:07:04.528Z,-1.60
2019-01-21T01:09:34.042Z,-1.60
2019-01-21T01:12:03.545Z,-1.60
2019-01-21T01:14:33.032Z,-1.50
2019-01-21T01:17:02.591Z,-1.50
2019-01-21T01:19:31.991Z,-1.40
2019-01-21T01:22:01.587Z,-1.50
2019-01-21T01:24:31.177Z,-1.50
2019-01-21T01:27:00.725Z,-1.50
2019-01-21T01:29:30.365Z,-1.60
2019-01-21T01:31:59.981Z,-1.60
2019-01-21T01:34:29.341Z,-1.50
2019-01-21T01:36:58.887Z,-1.50
2019-01-21T01:39:28.234Z,-1.50
2019-01-21T01:41:58.094Z,-1.60
2019-01-21T01:44:27.806Z,-1.70
2019-01-21T01:46:57.166Z,-1.80
2019-01-21T01:49:26.749Z,-1.70
2019-01-21T01:51:56.135Z,-1.70
2019-01-21T01:54:25.657Z,-1.80
2019-01-21T01:56:55.294Z,-1.80
2019-01-21T01:59:25.711Z,-1.80
2019-01-21T02:01:55.220Z,-1.80
2019-01-21T02:04:24.889Z,-1.90
2019-01-21T02:06:54.443Z,-1.90
2019-01-21T02:09:24.384Z,-1.90
2019-01-21T02:11:53.826Z,-1.90
2019-01-21T02:14:23.273Z,-1.80
2019-01-21T02:16:52.801Z,-1.80
2019-01-21T02:19:25.067Z,-1.90
2019-01-21T02:21:57.382Z,-1.90
2019-01-21T02:24:32.258Z,-2.00
2019-01-21T02:27:08.961Z,-2.00
2019-01-21T02:29:55.010Z,-2.00
2019-01-21T02:33:06.617Z,-2.00
2019-01-21T02:36:00.121Z,-2.10
2019-01-21T02:39:41.362Z,-2.10
2019-01-21T02:42:26.082Z,-2.10
2019-01-21T02:45:35.793Z,-2.10
2019-01-21T02:48:36.135Z,-2.10
2019-01-21T02:51:44.198Z,-2.20
2019-01-21T02:54:47.093Z,-2.10
2019-01-21T02:57:57.011Z,-2.20
2019-01-21T03:01:13.398Z,-2.20
2019-01-21T03:04:25.944Z,-2.20
2019-01-21T03:07:17.854Z,-2.20
2019-01-21T03:10:19.980Z,-2.20
2019-01-21T03:13:04.291Z,-2.20
2019-01-21T03:15:51.042Z,-2.20
2019-01-21T03:18:44.616Z,-2.20
2019-01-21T03:21:57.277Z,-2.20
2019-01-21T03:25:01.314Z,-2.20
2019-01-21T03:28:21.143Z,-2.10
2019-01-21T03:31:46.110Z,-2.20
2019-01-21T03:34:41.309Z,-2.30
2019-01-21T03:37:42.751Z,-2.40
2019-01-21T03:40:24.905Z,-2.40
2019-01-21T03:43:24.059Z,-2.50
2019-01-21T03:46:30.566Z,-2.50
2019-01-21T03:49:09.618Z,-2.50
2019-01-21T03:52:14.650Z,-2.40
2019-01-21T03:55:06.617Z,-2.40
2019-01-21T03:58:41.426Z,-2.50
2019-01-21T04:01:40.305Z,-2.40
2019-01-21T04:04:52.373Z,-2.30
2019-01-21T04:08:11.214Z,-2.30
2019-01-21T04:11:45.635Z,-2.20
2019-01-21T04:14:51.201Z,-2.20
2019-01-21T04:18:12.473Z,-2.20
2019-01-21T04:21:14.831Z,-2.20
2019-01-21T04:24:13.872Z,-2.20
2019-01-21T04:26:55.085Z,-2.20
2019-01-21T04:30:00.741Z,-2.30
2019-01-21T04:33:02.805Z,-2.20
2019-01-21T04:35:57.763Z,-2.00
2019-01-21T04:39:01.085Z,-2.10
2019-01-21T04:41:51.581Z,-2.20
2019-01-21T04:45:04.815Z,-2.30
2019-01-21T04:48:06.882Z,-2.40
2019-01-21T04:51:15.658Z,-2.50
2019-01-21T04:54:18.851Z,-2.40
2019-01-21T04:57:22.903Z,-2.30
2019-01-21T05:00:39.095Z,-2.20
2019-01-21T05:03:45.671Z,-2.10
2019-01-21T05:07:01.846Z,-2.10
2019-01-21T05:10:05.713Z,-2.20
2019-01-21T05:13:07.734Z,-2.10
2019-01-21T05:16:12.439Z,-2.20
2019-01-21T05:19:18.179Z,-2.20
2019-01-21T05:22:24.912Z,-2.30
2019-01-21T05:25:46.371Z,-2.40
2019-01-21T05:28:57.232Z,-2.50
2019-01-21T05:32:13.062Z,-2.50
2019-01-21T05:35:12.035Z,-2.50
2019-01-21T05:38:00.135Z,-2.60
2019-01-21T05:41:04.063Z,-2.50
2019-01-21T05:44:07.388Z,-2.60
2019-01-21T05:47:16.801Z,-2.60
2019-01-21T05:50:18.603Z,-2.60
2019-01-21T05:53:34.734Z,-2.50
2019-01-21T05:56:39.086Z,-2.30
2019-01-21T05:59:31.643Z,-2.30
2019-01-21T06:02:51.668Z,-2.40
2019-01-21T06:05:58.951Z,-2.50
2019-01-21T06:09:15.407Z,-2.50
2019-01-21T06:12:04.371Z,-2.50
2019-01-21T06:14:57.370Z,-2.60
2019-01-21T06:18:09.629Z,-2.50
2019-01-21T06:21:11.261Z,-2.60
2019-01-21T06:23:51.887Z,-2.60
2019-01-21T06:27:14.693Z,-2.60
2019-01-21T06:30:12.968Z,-2.60
2019-01-21T06:33:17.182Z,-2.60
2019-01-21T06:36:12.398Z,-2.50
2019-01-21T06:39:16.307Z,-2.50
2019-01-21T06:42:26.819Z,-2.50
2019-01-21T06:45:51.481Z,-2.60
2019-01-21T06:49:04.451Z,-2.60
2019-01-21T06:51:52.567Z,-2.80
2019-01-21T06:55:06.112Z,-2.70
2019-01-21T06:58:03.745Z,-2.70
2019-01-21T07:01:18.708Z,-2.60
2019-01-21T07:04:07.442Z,-2.60
2019-01-21T07:07:35.795Z,-2.80
2019-01-21T07:10:34.372Z,-2.80
2019-01-21T07:13:45.157Z,-2.90
2019-01-21T07:16:40.865Z,-2.90
2019-01-21T07:20:00.397Z,-3.00
2019-01-21T07:22:53.867Z,-3.00
2019-01-21T07:26:03.193Z,-3.00
2019-01-21T07:29:09.434Z,-3.10
2019-01-21T07:32:13.219Z,-3.10
2019-01-21T07:35:24.836Z,-2.90
2019-01-21T07:38:22.262Z,-2.90
2019-01-21T07:41:14.711Z,-2.80
2019-01-21T07:44:04.742Z,-2.80
2019-01-21T07:47:17.569Z,-2.80
2019-01-21T07:49:59.595Z,-2.80
2019-01-21T07:53:09.937Z,-2.80
2019-01-21T07:56:03.087Z,-3.00
2019-01-21T07:59:19.658Z,-3.00
2019-01-21T08:02:22.988Z,-3.00
2019-01-21T08:05:20.936Z,-2.80
2019-01-21T08:08:04.598Z,-2.80
2019-01-21T08:11:04.856Z,-2.80
2019-01-21T08:14:27.743Z,-2.70
2019-01-21T08:17:47.326Z,-2.80
2019-01-21T08:20:47.911Z,-2.80
2019-01-21T08:24:07.507Z,-2.70
2019-01-21T08:27:03.307Z,-2.60
2019-01-21T08:30:02.370Z,-2.50
2019-01-21T08:32:58.157Z,-2.30
2019-01-21T08:36:12.276Z,-2.20
2019-01-21T08:39:18.359Z,-2.10
2019-01-21T08:42:32.033Z,-2.10
2019-01-21T08:45:29.501Z,-2.10
2019-01-21T08:48:05.496Z,-2.10
2019-01-21T08:51:13.041Z,-2.20
2019-01-21T08:54:19.721Z,-2.10
2019-01-21T08:57:35.948Z,-2.10
2019-01-21T09:00:31.576Z,-2.10
2019-01-21T09:03:52.429Z,-2.00
2019-01-21T09:07:01.957Z,-1.90
2019-01-21T09:09:44.626Z,-1.80
2019-01-21T09:13:04.510Z,-1.50
2019-01-21T09:16:02.846Z,-1.50
2019-01-21T09:19:18.992Z,-1.40
2019-01-21T09:22:44.350Z,-1.30
2019-01-21T09:25:52.698Z,-1.30
2019-01-21T09:28:52.014Z,-1.20
2019-01-21T09:32:16.357Z,-1.00
2019-01-21T09:35:25.220Z,-1.10
2019-01-21T09:38:44.390Z,-1.00
2019-01-21T09:42:03.540Z,-1.00
2019-01-21T09:44:42.594Z,-0.90
2019-01-21T09:47:10.369Z,-0.70
2019-01-21T09:49:43.582Z,-0.60
2019-01-21T09:52:13.711Z,-0.60
2019-01-21T09:54:43.417Z,-0.90
2019-01-21T09:57:25.034Z,-0.90
2019-01-21T10:00:00.420Z,-1.10
2019-01-21T10:02:37.262Z,-1.30
2019-01-21T10:05:12.811Z,-1.30
2019-01-21T10:08:18.118Z,-1.20
2019-01-21T10:11:30.430Z,-1.30
2019-01-21T10:14:38.562Z,-1.50
2019-01-21T10:17:49.599Z,-1.40
2019-01-21T10:20:51.116Z,-1.50
2019-01-21T10:23:36.765Z,-1.30
2019-01-21T10:26:43.467Z,-1.30
2019-01-21T10:29:39.399Z,-1.30
2019-01-21T10:32:41.242Z,-1.40
2019-01-21T10:36:00.711Z,-1.50
2019-01-21T10:39:15.362Z,-1.50
2019-01-21T10:41:58.580Z,-1.40
2019-01-21T10:44:56.779Z,-1.50
2019-01-21T10:47:38.800Z,-1.30
2019-01-21T10:50:47.580Z,-1.20
2019-01-21T10:53:39.741Z,-1.10
2019-01-21T10:56:30.161Z,-1.20
2019-01-21T10:59:43.476Z,-1.20
2019-01-21T11:03:05.666Z,-1.10
2019-01-21T11:05:52.435Z,-1.20
2019-01-21T11:08:52.443Z,-1.20
2019-01-21T11:12:05.126Z,-1.20
2019-01-21T11:14:48.955Z,-1.20
2019-01-21T11:18:00.341Z,-1.00
2019-01-21T11:21:17.113Z,-1.10
2019-01-21T11:24:23.372Z,-1.20
2019-01-21T11:27:48.007Z,-1.10
2019-01-21T11:30:46.755Z,-1.00
2019-01-21T11:34:09.579Z,-0.90
2019-01-21T11:37:25.365Z,-0.80
2019-01-21T11:40:25.675Z,-0.80
2019-01-21T11:43:31.334Z,-0.90
2019-01-21T11:46:36.530Z,-1.00
2019-01-21T11:49:50.147Z,-0.90
2019-01-21T11:52:30.557Z,-0.70
2019-01-21T11:55:39.210Z,-0.70
2019-01-21T11:58:48.070Z,-0.90
2019-01-21T12:01:58.694Z,-0.80
2019-01-21T12:05:26.742Z,-0.80
2019-01-21T12:08:43.065Z,-0.80
2019-01-21T12:11:43.329Z,-0.80
2019-01-21T12:14:53.701Z,-0.70
2019-01-21T12:17:58.871Z,-0.70
2019-01-21T12:21:05.534Z,-0.60
2019-01-21T12:23:54.142Z,-0.70
2019-01-21T12:27:05.017Z,-0.60
2019-01-21T12:30:29.774Z,-0.60
2019-01-21T12:33:31.020Z,-0.60
2019-01-21T12:36:07.475Z,-0.60
2019-01-21T12:39:20.162Z,-0.50
2019-01-21T12:42:26.410Z,-0.50
2019-01-21T12:45:46.228Z,-0.50
2019-01-21T12:48:47.550Z,-0.40
2019-01-21T12:51:54.069Z,-0.40
2019-01-21T12:54:56.647Z,-0.50
2019-01-21T12:57:57.379Z,-0.50
2019-01-21T13:00:56.897Z,-0.40
2019-01-21T13:04:19.028Z,-0.40
2019-01-21T13:07:09.534Z,-0.40
2019-01-21T13:10:18.727Z,-0.40
2019-01-21T13:13:21.210Z,-0.50
2019-01-21T13:16:31.888Z,-0.70
2019-01-21T13:19:36.964Z,-0.60
2019-01-21T13:22:23.934Z,-0.60
2019-01-21T13:25:24.850Z,-0.70
2019-01-21T13:28:32.282Z,-0.90
2019-01-21T13:31:37.568Z,-1.00
2019-01-21T13:34:46.075Z,-0.90
2019-01-21T13:38:05.440Z,-0.80
2019-01-21T13:40:59.753Z,-0.70
2019-01-21T13:43:59.822Z,-0.70
2019-01-21T13:46:53.359Z,-0.90
2019-01-21T13:49:48.964Z,-0.90
2019-01-21T13:53:09.322Z,-0.80
2019-01-21T13:55:52.707Z,-0.90
2019-01-21T13:59:02.274Z,-0.70
2019-01-21T14:02:01.537Z,-0.60
2019-01-21T14:05:02.023Z,-0.50
2019-01-21T14:08:11.778Z,-0.40
2019-01-21T14:11:21.676Z,-0.60
2019-01-21T14:14:07.181Z,-0.70
2019-01-21T14:17:16.030Z,-0.70
2019-01-21T14:20:25.867Z,-0.60
2019-01-21T14:23:38.055Z,-0.50
2019-01-21T14:26:39.736Z,-0.40
2019-01-21T14:29:47.424Z,-0.50
2019-01-21T14:33:01.221Z,-0.50
2019-01-21T14:36:14.640Z,-0.70
2019-01-21T14:39:28.033Z,-0.70
2019-01-21T14:42:25.518Z,-0.80
2019-01-21T14:45:38.450Z,-0.90
2019-01-21T14:49:05.228Z,-1.00
2019-01-21T14:52:00.018Z,-1.00
2019-01-21T14:55:05.397Z,-0.90
2019-01-21T14:58:18.065Z,-1.00
2019-01-21T15:01:04.028Z,-1.00
2019-01-21T15:04:09.085Z,-1.00
2019-01-21T15:07:10.949Z,-1.00
2019-01-21T15:10:04.310Z,-1.10
2019-01-21T15:13:22.307Z,-1.10
2019-01-21T15:16:31.992Z,-1.10
2019-01-21T15:19:29.858Z,-1.00
2019-01-21T15:22:27.816Z,-1.10
2019-01-21T15:25:43.169Z,-1.20
2019-01-21T15:29:09.192Z,-1.10
2019-01-21T15:32:14.399Z,-1.20
2019-01-21T15:35:40.502Z,-1.20
2019-01-21T15:38:51.062Z,-1.30
2019-01-21T15:42:00.466Z,-1.50
2019-01-21T15:45:20.153Z,-1.60
2019-01-21T15:48:30.311Z,-1.80
2019-01-21T15:51:54.709Z,-2.00
2019-01-21T15:55:01.132Z,-2.20
2019-01-21T15:58:20.886Z,-2.30
2019-01-21T16:01:25.338Z,-2.40
2019-01-21T16:04:02.548Z,-2.40
2019-01-21T16:07:34.123Z,-2.50
2019-01-21T16:10:31.255Z,-2.50
2019-01-21T16:13:49.376Z,-2.50
2019-01-21T16:16:55.541Z,-2.40
2019-01-21T16:19:38.606Z,-2.40
2019-01-21T16:22:34.454Z,-2.20
2019-01-21T16:25:24.965Z,-2.10
2019-01-21T16:28:41.807Z,-2.00
2019-01-21T16:31:49.386Z,-2.00
2019-01-21T16:34:50.477Z,-1.80
2019-01-21T16:37:49.473Z,-1.90
2019-01-21T16:41:08.788Z,-2.00
2019-01-21T16:43:38.317Z,-2.00
2019-01-21T16:46:07.850Z,-2.00
2019-01-21T16:48:37.404Z,-1.90
2019-01-21T16:51:06.888Z,-1.80
2019-01-21T16:53:36.435Z,-1.80
2019-01-21T16:56:06.231Z,-1.70
2019-01-21T16:58:35.814Z,-1.80
2019-01-21T17:01:05.654Z,-1.60
2019-01-21T17:03:36.030Z,-1.70
2019-01-21T17:06:06.002Z,-1.70
2019-01-21T17:08:35.563Z,-1.70
2019-01-21T17:11:05.343Z,-1.60
2019-01-21T17:13:34.930Z,-1.60
2019-01-21T17:16:05.051Z,-1.70
2019-01-21T17:18:34.675Z,-1.70
2019-01-21T17:21:04.902Z,-1.70
2019-01-21T17:23:36.075Z,-1.80
2019-01-21T17:26:07.068Z,-1.80
2019-01-21T17:28:36.753Z,-1.60
2019-01-21T17:31:07.168Z,-1.40
2019-01-21T17:33:37.102Z,-1.40
2019-01-21T17:36:07.043Z,-1.50
2019-01-21T17:38:36.509Z,-1.40
2019-01-21T17:41:06.817Z,-1.30
2019-01-21T17:43:36.359Z,-1.30
2019-01-21T17:46:06.355Z,-1.50
2019-01-21T17:48:36.318Z,-1.50
2019-01-21T17:51:06.617Z,-1.50
2019-01-21T17:53:37.086Z,-1.50
2019-01-21T17:56:07.138Z,-1.60
2019-01-21T17:58:36.859Z,-1.60
2019-01-21T18:01:06.700Z,-1.60
2019-01-21T18:03:36.723Z,-1.80
2019-01-21T18:06:06.566Z,-1.90
2019-01-21T18:08:36.411Z,-2.00
2019-01-21T18:11:06.112Z,-2.10
2019-01-21T18:13:35.721Z,-2.20
2019-01-21T18:16:05.469Z,-2.30
2019-01-21T18:18:35.318Z,-2.50
2019-01-21T18:21:05.062Z,-2.60
2019-01-21T18:23:34.700Z,-2.90
2019-01-21T18:26:04.639Z,-3.00
2019-01-21T18:28:34.333Z,-3.10
2019-01-21T18:31:04.217Z,-3.20
2019-01-21T18:33:34.206Z,-3.30
2019-01-21T18:36:04.195Z,-3.40
2019-01-21T18:38:33.913Z,-3.40
2019-01-21T18:41:03.780Z,-3.50
2019-01-21T18:43:33.687Z,-3.50
2019-01-21T18:46:03.643Z,-3.50
2019-01-21T18:48:33.463Z,-3.50
2019-01-21T18:51:03.330Z,-3.50
2019-01-21T18:53:33.547Z,-3.50
2019-01-21T18:56:03.378Z,-3.40
2019-01-21T18:58:33.423Z,-3.30
2019-01-21T19:01:03.358Z,-3.20
2019-01-21T19:03:33.734Z,-3.20
2019-01-21T19:06:03.517Z,-3.10
2019-01-21T19:08:33.658Z,-3.00
2019-01-21T19:11:04.192Z,-2.90
2019-01-21T19:13:34.741Z,-2.80
2019-01-21T19:16:05.011Z,-2.80
2019-01-21T19:18:35.509Z,-2.70
2019-01-21T19:21:05.846Z,-2.70
2019-01-21T19:23:35.400Z,-2.60
2019-01-21T19:26:07.898Z,-2.60
2019-01-21T19:28:37.607Z,-2.60
2019-01-21T19:31:08.548Z,-2.60
2019-01-21T19:33:39.101Z,-2.60
2019-01-21T19:36:10.173Z,-2.60
2019-01-21T19:38:42.427Z,-2.50
2019-01-21T19:41:12.287Z,-2.50
2019-01-21T19:43:42.096Z,-2.50
2019-01-21T19:46:12.048Z,-2.50
2019-01-21T19:48:41.629Z,-2.50
2019-01-21T19:51:12.298Z,-2.50
2019-01-21T19:53:41.882Z,-2.50
2019-01-21T19:56:11.583Z,-2.50
2019-01-21T19:58:41.217Z,-2.60
2019-01-21T20:01:10.991Z,-2.60
2019-01-21T20:03:40.688Z,-2.60
2019-01-21T20:06:10.542Z,-2.60
2019-01-21T20:08:42.688Z,-2.60
2019-01-21T20:11:12.349Z,-2.60
2019-01-21T20:13:42.384Z,-2.60
2019-01-21T20:16:12.056Z,-2.60
2019-01-21T20:21:18.243Z,-2.50
2019-01-21T20:23:47.739Z,-2.50
2019-01-21T20:26:17.912Z,-2.50
2019-01-21T20:28:47.695Z,-2.50
2019-01-21T20:31:17.288Z,-2.50
2019-01-21T20:33:51.971Z,-2.40
2019-01-21T20:36:18.375Z,-2.40
2019-01-21T20:38:48.176Z,-2.50
2019-01-21T20:41:17.827Z,-2.50
2019-01-21T20:43:47.776Z,-2.60
2019-01-21T20:46:17.487Z,-2.60
2019-01-21T20:48:47.203Z,-2.60
2019-01-21T20:51:16.841Z,-2.60
2019-01-21T20:53:46.710Z,-2.60
2019-01-21T20:56:16.234Z,-2.60
2019-01-21T20:58:47.385Z,-2.70
2019-01-21T21:01:17.234Z,-2.60
2019-01-21T21:03:47.449Z,-2.70
2019-01-21T21:06:17.133Z,-2.70
2019-01-21T21:08:46.754Z,-2.70
2019-01-21T21:11:16.227Z,-2.70
2019-01-21T21:13:49.592Z,-2.70
2019-01-21T21:16:19.189Z,-2.70
2019-01-21T21:18:48.668Z,-2.70
2019-01-21T21:21:18.042Z,-2.70
2019-01-21T21:23:47.723Z,-2.60
2019-01-21T21:26:17.485Z,-2.50
2019-01-21T21:28:46.954Z,-2.40
2019-01-21T21:31:16.323Z,-2.50
2019-01-21T21:33:45.727Z,-2.60
2019-01-21T21:36:15.371Z,-2.70
2019-01-21T21:38:45.065Z,-2.80
2019-01-21T21:41:14.506Z,-2.80
2019-01-21T21:43:43.927Z,-2.90
2019-01-21T21:46:13.479Z,-3.00
2019-01-21T21:48:42.892Z,-3.00
2019-01-21T21:51:12.419Z,-3.10
2019-01-21T21:53:41.719Z,-3.10
2019-01-21T21:56:11.057Z,-3.10
2019-01-21T21:58:40.340Z,-3.10
2019-01-21T22:01:09.918Z,-3.10
2019-01-21T22:03:39.435Z,-3.10
2019-01-21T22:06:08.890Z,-3.10
2019-01-21T22:08:38.456Z,-3.20
2019-01-21T22:11:08.915Z,-3.20
2019-01-21T22:13:38.458Z,-3.10
2019-01-21T22:16:08.344Z,-3.20
2019-01-21T22:18:37.617Z,-3.30
2019-01-21T22:21:07.305Z,-3.30
2019-01-21T22:23:36.678Z,-3.40
2019-01-21T22:26:08.921Z,-3.50
2019-01-21T22:28:38.282Z,-3.60
2019-01-21T22:31:08.779Z,-3.60
2019-01-21T22:33:38.335Z,-3.70
2019-01-21T22:36:07.862Z,-3.80
2019-01-21T22:38:37.474Z,-3.90
2019-01-21T22:41:07.050Z,-4.10
2019-01-21T22:43:36.454Z,-4.20
2019-01-21T22:46:05.849Z,-4.30
2019-01-21T22:48:35.889Z,-4.50
2019-01-21T22:51:05.456Z,-4.60
2019-01-21T22:53:36.513Z,-4.60
2019-01-21T22:56:05.856Z,-4.70
2019-01-21T22:58:35.230Z,-4.80
2019-01-21T23:01:27.372Z,-4.90
2019-01-21T23:03:56.870Z,-5.00
2019-01-21T23:06:26.380Z,-5.00
2019-01-21T23:08:55.875Z,-5.00
2019-01-21T23:11:25.415Z,-5.00
2019-01-21T23:13:54.921Z,-4.90
2019-01-21T23:16:24.405Z,-5.00
2019-01-21T23:18:53.987Z,-5.00
2019-01-21T23:21:23.332Z,-5.10
2019-01-21T23:23:52.841Z,-5.20
2019-01-21T23:26:22.471Z,-5.30
2019-01-21T23:28:52.270Z,-5.50
2019-01-21T23:31:21.697Z,-5.70
2019-01-21T23:33:51.372Z,-5.80
2019-01-21T23:36:21.199Z,-5.90
2019-01-21T23:38:50.691Z,-6.00
2019-01-21T23:41:20.702Z,-6.10
2019-01-21T23:43:50.498Z,-6.10
2019-01-21T23:46:19.954Z,-6.00
2019-01-21T23:48:49.503Z,-6.10
2019-01-21T23:51:19.063Z,-6.20
2019-01-21T23:53:48.782Z,-6.30
2019-01-21T23:56:18.257Z,-6.40
2019-01-21T23:58:47.656Z,-6.50
